This is the latest recevied weather packets stored in our database for station/object HB9KBJ-8. If no packets are shown the sender has not sent any weather packets the latest 10 day(s).
| Time | Temp. | Humidity | Pressure | Rain* | Wind** | Luminosity | Snow |
|---|---|---|---|---|---|---|---|
| 1777718841 | 21.11° C | 52% | 1021.7 hPa | 0 mm | - | 772 W/m² | - |
| 1777718536 | 21.67° C | 50% | 1021.8 hPa | 0 mm | - | 744 W/m² | - |
| 1777718250 | 21.11° C | 51% | 1021.9 hPa | 0 mm | - | 765 W/m² | - |
| 1777717943 | 20.56° C | 52% | 1021.9 hPa | 0 mm | - | 770 W/m² | - |
| 1777717639 | 20.56° C | 51% | 1022 hPa | 0 mm | - | 786 W/m² | - |
| 1777717340 | 20.56° C | 51% | 1022.1 hPa | 0 mm | - | 717 W/m² | - |
| 1777717044 | 20.56° C | 52% | 1022.2 hPa | 0 mm | - | 722 W/m² | - |
| 1777716742 | 20° C | 52% | 1022.3 hPa | 0 mm | - | 700 W/m² | - |
| 1777716435 | 20.56° C | 52% | 1022.3 hPa | 0 mm | - | 703 W/m² | - |
| 1777716152 | 20° C | 54% | 1022.4 hPa | 0 mm | - | 719 W/m² | - |
| 1777715847 | 20° C | 54% | 1022.4 hPa | 0 mm | - | 722 W/m² | - |
| 1777715542 | 19.44° C | 55% | 1022.5 hPa | 0 mm | - | 710 W/m² | - |
| 1777715236 | 19.44° C | 55% | 1022.6 hPa | 0 mm | - | 726 W/m² | - |
| 1777714951 | 20° C | 53% | 1022.6 hPa | 0 mm | - | 724 W/m² | - |
| 1777714644 | 21.67° C | 50% | 1022.8 hPa | 0 mm | - | 708 W/m² | - |
| 1777714347 | 21.11° C | 51% | 1022.8 hPa | 0 mm | - | 673 W/m² | - |
| 1777714042 | 19.44° C | 55% | 1022.9 hPa | 0 mm | - | 650 W/m² | - |
| 1777713736 | 19.44° C | 53% | 1023 hPa | 0 mm | - | 671 W/m² | - |
| 1777713451 | 21.11° C | 53% | 1023 hPa | 0 mm | - | 657 W/m² | - |
| 1777713148 | 19.44° C | 55% | 1023.1 hPa | 0 mm | - | 649 W/m² | - |
| 1777712842 | 17.78° C | 60% | 1023.2 hPa | 0 mm | - | 664 W/m² | - |
| 1777712556 | 18.33° C | 57% | 1023.3 hPa | 0 mm | - | 666 W/m² | - |
| 1777712249 | 18.33° C | 59% | 1023.4 hPa | 0 mm | - | 615 W/m² | - |
| 1777711943 | 17.78° C | 61% | 1023.4 hPa | 0 mm | - | 643 W/m² | - |
| 1777711637 | 17.22° C | 59% | 1023.4 hPa | 0 mm | - | 592 W/m² | - |
* Rain latest hour (hover to see other rain measurements)
** Current wind speed in m/s (hover to see current wind gust speed)